createdAt,value
2018-01-30T00:00:41.220Z,4.71
2018-01-30T00:01:43.688Z,4.67
2018-01-30T00:02:46.164Z,4.64
2018-01-30T00:03:48.652Z,4.56
2018-01-30T00:04:51.121Z,4.63
2018-01-30T00:05:53.609Z,4.68
2018-01-30T00:06:56.068Z,4.62
2018-01-30T00:07:58.603Z,4.71
2018-01-30T00:09:01.077Z,4.77
2018-01-30T00:10:03.545Z,4.86
2018-01-30T00:11:06.021Z,4.81
2018-01-30T00:12:08.482Z,4.65
2018-01-30T00:13:10.957Z,4.68
2018-01-30T00:14:13.429Z,4.65
2018-01-30T00:15:15.891Z,4.54
2018-01-30T00:16:18.368Z,4.53
2018-01-30T00:17:20.899Z,4.61
2018-01-30T00:18:23.381Z,4.52
2018-01-30T00:19:25.840Z,4.50
2018-01-30T00:20:28.317Z,4.49
2018-01-30T00:21:30.795Z,4.46
2018-01-30T00:22:33.273Z,4.51
2018-01-30T00:23:35.750Z,4.38
2018-01-30T00:24:38.220Z,4.51
2018-01-30T00:25:40.692Z,4.50
2018-01-30T00:26:43.173Z,4.64
2018-01-30T00:27:45.632Z,4.51
2018-01-30T00:28:48.100Z,4.40
2018-01-30T00:29:50.577Z,4.38
2018-01-30T00:30:53.043Z,4.52
2018-01-30T00:31:55.502Z,4.54
2018-01-30T00:32:57.977Z,4.70
2018-01-30T00:34:00.502Z,4.60
2018-01-30T00:35:02.955Z,4.48
2018-01-30T00:36:05.436Z,4.37
2018-01-30T00:37:07.890Z,4.37
2018-01-30T00:38:10.346Z,4.28
2018-01-30T00:39:12.808Z,4.37
2018-01-30T00:40:15.271Z,4.30
2018-01-30T00:41:17.731Z,4.30
2018-01-30T00:42:20.201Z,4.36
2018-01-30T00:43:22.664Z,4.41
2018-01-30T00:44:25.144Z,4.24
2018-01-30T00:45:27.598Z,4.18
2018-01-30T00:46:30.069Z,4.06
2018-01-30T00:47:32.536Z,4.10
2018-01-30T00:48:35.007Z,4.29
2018-01-30T00:49:37.487Z,4.29
2018-01-30T00:50:39.946Z,4.17
2018-01-30T00:51:42.420Z,4.02
2018-01-30T00:52:44.930Z,4.05
2018-01-30T00:53:47.405Z,4.10
2018-01-30T00:54:49.885Z,4.04
2018-01-30T00:55:52.360Z,3.89
2018-01-30T00:56:54.818Z,3.82
2018-01-30T00:57:57.274Z,3.72
2018-01-30T00:58:59.734Z,3.66
2018-01-30T01:00:02.210Z,3.82
2018-01-30T01:01:04.689Z,4.16
2018-01-30T01:02:07.150Z,4.29
2018-01-30T01:03:09.621Z,4.26
2018-01-30T01:04:12.080Z,4.21
2018-01-30T01:05:14.542Z,4.13
2018-01-30T01:06:17.023Z,4.12
2018-01-30T01:07:19.496Z,3.91
2018-01-30T01:08:21.969Z,3.77
2018-01-30T01:09:24.434Z,4.00
2018-01-30T01:10:26.905Z,3.92
2018-01-30T01:11:29.380Z,3.97
2018-01-30T01:12:31.849Z,3.96
2018-01-30T01:13:34.365Z,3.83
2018-01-30T01:14:36.844Z,3.91
2018-01-30T01:15:39.329Z,4.09
2018-01-30T01:16:41.794Z,4.07
2018-01-30T01:17:44.251Z,3.92
2018-01-30T01:18:46.735Z,3.98
2018-01-30T01:19:49.209Z,3.93
2018-01-30T01:20:51.684Z,3.86
2018-01-30T01:21:54.146Z,3.71
2018-01-30T01:22:56.621Z,3.60
2018-01-30T01:23:59.087Z,3.49
2018-01-30T01:25:01.540Z,3.79
2018-01-30T01:26:04.009Z,3.70
2018-01-30T01:27:06.485Z,3.81
2018-01-30T01:28:08.943Z,3.96
2018-01-30T01:29:11.417Z,3.97
2018-01-30T01:30:13.897Z,4.04
2018-01-30T01:31:16.375Z,3.83
2018-01-30T01:32:18.845Z,3.73
2018-01-30T01:33:21.303Z,3.50
2018-01-30T01:34:23.797Z,3.27
2018-01-30T01:35:26.250Z,3.13
2018-01-30T01:36:28.764Z,3.27
2018-01-30T01:37:31.226Z,3.17
2018-01-30T01:38:33.754Z,3.27
2018-01-30T01:39:36.236Z,3.22
2018-01-30T01:40:38.692Z,3.38
2018-01-30T01:41:41.147Z,3.30
2018-01-30T01:42:43.606Z,3.44
2018-01-30T01:43:46.090Z,3.42
2018-01-30T01:44:48.548Z,3.46
2018-01-30T01:45:51.007Z,3.56
2018-01-30T01:46:53.623Z,3.70
2018-01-30T01:47:56.089Z,3.77
2018-01-30T01:48:58.565Z,3.76
2018-01-30T01:50:01.023Z,3.76
2018-01-30T01:51:03.488Z,3.77
2018-01-30T01:52:05.957Z,3.56
2018-01-30T01:53:08.428Z,3.47
2018-01-30T01:54:10.938Z,3.55
2018-01-30T01:55:13.394Z,3.62
2018-01-30T01:56:15.855Z,3.63
2018-01-30T01:57:18.322Z,3.58
2018-01-30T01:58:20.793Z,3.36
2018-01-30T01:59:23.260Z,3.32
2018-01-30T02:00:25.733Z,3.21
2018-01-30T02:01:28.202Z,3.11
2018-01-30T02:02:30.791Z,3.09
2018-01-30T02:03:33.424Z,3.11
2018-01-30T02:04:35.895Z,3.38
2018-01-30T02:05:38.369Z,3.53
2018-01-30T02:06:40.845Z,3.48
2018-01-30T02:07:43.322Z,3.54
2018-01-30T02:08:45.797Z,3.37
2018-01-30T02:09:48.270Z,3.44
2018-01-30T02:10:50.733Z,3.36
2018-01-30T02:11:53.187Z,3.20
2018-01-30T02:12:55.643Z,3.20
2018-01-30T02:13:58.116Z,3.42
2018-01-30T02:15:00.583Z,3.40
2018-01-30T02:16:03.061Z,3.46
2018-01-30T02:17:05.540Z,3.23
2018-01-30T02:18:08.006Z,3.09
2018-01-30T02:19:10.471Z,3.46
2018-01-30T02:20:12.935Z,3.41
2018-01-30T02:21:15.391Z,3.25
2018-01-30T02:22:17.854Z,3.08
2018-01-30T02:23:20.332Z,3.28
2018-01-30T02:24:22.808Z,3.49
2018-01-30T02:25:25.293Z,3.45
2018-01-30T02:26:27.768Z,3.61
2018-01-30T02:27:30.244Z,3.41
2018-01-30T02:28:32.717Z,3.26
2018-01-30T02:29:35.188Z,3.13
2018-01-30T02:30:37.646Z,3.24
2018-01-30T02:31:40.123Z,3.51
2018-01-30T02:32:42.590Z,3.65
2018-01-30T02:33:45.050Z,3.56
2018-01-30T02:34:47.541Z,3.55
2018-01-30T02:35:50.020Z,3.46
2018-01-30T02:36:52.477Z,3.48
2018-01-30T02:37:54.942Z,3.63
2018-01-30T02:38:57.421Z,3.63
2018-01-30T02:39:59.905Z,3.65
2018-01-30T02:41:02.389Z,3.79
2018-01-30T02:42:04.856Z,3.81
2018-01-30T02:43:07.360Z,3.96
2018-01-30T02:44:09.844Z,3.99
2018-01-30T02:45:12.307Z,3.91
2018-01-30T02:46:14.790Z,3.85
2018-01-30T02:47:17.282Z,3.85
2018-01-30T02:48:19.764Z,3.85
2018-01-30T02:49:22.234Z,3.79
2018-01-30T02:50:24.702Z,3.75
2018-01-30T02:51:27.171Z,3.76
2018-01-30T02:52:29.653Z,4.01
2018-01-30T02:53:32.139Z,3.97
2018-01-30T02:54:34.617Z,3.84
2018-01-30T02:55:37.083Z,3.79
2018-01-30T02:56:39.569Z,3.96
2018-01-30T02:57:42.053Z,3.81
2018-01-30T02:58:44.522Z,3.68
2018-01-30T02:59:46.992Z,3.61
2018-01-30T03:00:49.459Z,3.59
2018-01-30T03:01:51.928Z,3.67
2018-01-30T03:02:54.408Z,3.62
2018-01-30T03:03:56.874Z,3.69
2018-01-30T03:04:59.348Z,3.74
2018-01-30T03:06:01.829Z,3.62
2018-01-30T03:07:04.294Z,3.48
2018-01-30T03:08:06.807Z,3.51
2018-01-30T03:09:09.300Z,3.84
2018-01-30T03:10:11.767Z,3.70
2018-01-30T03:11:14.331Z,3.72
2018-01-30T03:12:16.811Z,3.91
2018-01-30T03:13:19.289Z,3.81
2018-01-30T03:14:21.764Z,3.67
2018-01-30T03:15:24.265Z,3.54
2018-01-30T03:16:26.748Z,3.62
2018-01-30T03:17:29.229Z,3.66
2018-01-30T03:18:31.694Z,3.73
2018-01-30T03:19:34.187Z,3.67
2018-01-30T03:20:36.668Z,3.49
2018-01-30T03:21:39.130Z,3.55
2018-01-30T03:22:41.594Z,3.48
2018-01-30T03:23:44.071Z,3.45
2018-01-30T03:24:46.547Z,3.51
2018-01-30T03:25:49.018Z,3.39
2018-01-30T03:26:51.493Z,3.26
2018-01-30T03:27:53.982Z,3.34
2018-01-30T03:28:56.450Z,3.20
2018-01-30T03:29:58.915Z,3.16
2018-01-30T03:31:01.371Z,3.12
2018-01-30T03:32:03.844Z,3.07
2018-01-30T03:33:06.345Z,2.97
2018-01-30T03:34:08.811Z,2.91
2018-01-30T03:35:11.310Z,2.88
2018-01-30T03:36:13.789Z,2.95
2018-01-30T03:37:16.264Z,3.02
2018-01-30T03:38:18.849Z,2.95
2018-01-30T03:39:21.315Z,3.00
2018-01-30T03:40:23.792Z,3.01
2018-01-30T03:41:26.273Z,2.96
2018-01-30T03:42:28.738Z,2.89
2018-01-30T03:43:31.202Z,2.87
2018-01-30T03:44:33.662Z,2.98
2018-01-30T03:45:36.126Z,3.05
2018-01-30T03:46:38.605Z,3.25
2018-01-30T03:47:41.088Z,3.31
2018-01-30T03:48:43.565Z,3.29
2018-01-30T03:49:46.046Z,3.23
2018-01-30T03:50:48.511Z,3.27
2018-01-30T03:51:50.985Z,3.58
2018-01-30T03:52:53.451Z,3.55
2018-01-30T03:53:55.933Z,3.54
2018-01-30T03:54:58.416Z,3.74
2018-01-30T03:56:00.913Z,3.95
2018-01-30T03:57:03.374Z,3.99
2018-01-30T03:58:05.849Z,3.92
2018-01-30T03:59:08.331Z,3.70
2018-01-30T04:00:10.813Z,3.58
2018-01-30T04:01:13.274Z,3.40
2018-01-30T04:02:15.759Z,3.35
2018-01-30T04:03:18.221Z,3.25
2018-01-30T04:04:20.686Z,3.19
2018-01-30T04:05:23.155Z,3.10
2018-01-30T04:06:25.632Z,3.11
2018-01-30T04:07:28.098Z,3.06
2018-01-30T04:08:30.563Z,3.01
2018-01-30T04:09:33.110Z,2.90
2018-01-30T04:10:35.580Z,2.84
2018-01-30T04:11:38.075Z,3.11
2018-01-30T04:12:40.557Z,3.09
2018-01-30T04:13:43.038Z,2.92
2018-01-30T04:14:45.502Z,2.82
2018-01-30T04:15:47.966Z,2.97
2018-01-30T04:16:50.440Z,3.14
2018-01-30T04:17:52.903Z,3.19
2018-01-30T04:18:55.380Z,3.10
2018-01-30T04:19:57.874Z,3.03
2018-01-30T04:21:00.345Z,3.15
2018-01-30T04:22:02.826Z,3.36
2018-01-30T04:23:05.294Z,3.37
2018-01-30T04:24:07.777Z,3.28
2018-01-30T04:25:10.257Z,3.12
2018-01-30T04:26:12.733Z,3.06
2018-01-30T04:27:15.200Z,2.97
2018-01-30T04:28:17.672Z,2.84
2018-01-30T04:29:20.142Z,2.84
2018-01-30T04:30:22.606Z,2.83
2018-01-30T04:31:25.066Z,2.87
2018-01-30T04:32:27.525Z,2.79
2018-01-30T04:33:30.000Z,2.72
2018-01-30T04:34:32.478Z,2.73
2018-01-30T04:35:34.964Z,2.76
2018-01-30T04:36:37.430Z,2.70
2018-01-30T04:37:39.913Z,2.64
2018-01-30T04:38:42.392Z,2.82
2018-01-30T04:39:44.862Z,2.79
2018-01-30T04:40:47.331Z,2.71
2018-01-30T04:41:49.824Z,2.71
2018-01-30T04:42:52.296Z,2.68
2018-01-30T04:43:54.760Z,2.55
2018-01-30T04:44:57.236Z,2.51
2018-01-30T04:45:59.721Z,2.50
2018-01-30T04:47:02.271Z,2.42
2018-01-30T04:48:04.754Z,2.46
2018-01-30T04:49:07.233Z,2.44
2018-01-30T04:50:09.698Z,2.63
2018-01-30T04:51:12.176Z,2.52
2018-01-30T04:52:14.652Z,2.38
2018-01-30T04:53:17.134Z,2.74
2018-01-30T04:54:19.609Z,2.80
2018-01-30T04:55:22.074Z,2.73
2018-01-30T04:56:24.535Z,2.68
2018-01-30T04:57:27.014Z,2.53
2018-01-30T04:58:29.496Z,2.46
2018-01-30T04:59:31.984Z,2.55
2018-01-30T05:00:34.469Z,2.63
2018-01-30T05:01:36.943Z,2.49
2018-01-30T05:02:39.410Z,2.46
2018-01-30T05:03:41.880Z,2.43
2018-01-30T05:04:44.360Z,2.44
2018-01-30T05:05:46.850Z,2.44
2018-01-30T05:06:49.313Z,2.48
2018-01-30T05:07:51.793Z,2.49
2018-01-30T05:08:54.259Z,2.56
2018-01-30T05:09:56.748Z,2.69
2018-01-30T05:10:59.214Z,2.72
2018-01-30T05:12:01.689Z,2.91
2018-01-30T05:13:04.198Z,2.90
2018-01-30T05:14:06.666Z,2.84
2018-01-30T05:15:09.130Z,2.78
2018-01-30T05:16:11.630Z,2.78
2018-01-30T05:17:14.108Z,3.00
2018-01-30T05:18:16.593Z,3.09
2018-01-30T05:19:19.062Z,3.27
2018-01-30T05:20:21.527Z,3.31
2018-01-30T05:21:23.995Z,3.40
2018-01-30T05:22:26.540Z,3.43
2018-01-30T05:23:29.010Z,3.47
2018-01-30T05:24:31.474Z,3.48
2018-01-30T05:25:33.956Z,3.56
2018-01-30T05:26:36.439Z,3.59
2018-01-30T05:27:38.924Z,3.43
2018-01-30T05:28:41.405Z,3.44
2018-01-30T05:29:43.967Z,3.48
2018-01-30T05:30:46.452Z,3.47
2018-01-30T05:31:48.914Z,3.59
2018-01-30T05:32:51.378Z,3.60
2018-01-30T05:33:53.857Z,3.50
2018-01-30T05:34:56.319Z,3.51
2018-01-30T05:35:58.793Z,3.41
2018-01-30T05:37:01.275Z,3.37
2018-01-30T05:38:03.739Z,3.58
2018-01-30T05:39:06.206Z,3.64
2018-01-30T05:40:08.712Z,3.52
2018-01-30T05:41:11.193Z,3.42
2018-01-30T05:42:13.684Z,3.58
2018-01-30T05:43:16.187Z,3.50
2018-01-30T05:44:18.664Z,3.40
2018-01-30T05:45:21.136Z,3.37
2018-01-30T05:46:23.611Z,3.32
2018-01-30T05:47:26.101Z,3.30
2018-01-30T05:48:28.629Z,3.27
2018-01-30T05:49:31.099Z,3.39
2018-01-30T05:50:33.562Z,3.41
2018-01-30T05:51:36.036Z,3.56
2018-01-30T05:52:38.518Z,3.62
2018-01-30T05:53:40.990Z,3.83
2018-01-30T05:54:43.487Z,3.64
2018-01-30T05:55:45.970Z,3.67
2018-01-30T05:56:48.430Z,3.55
2018-01-30T05:57:50.954Z,3.41
2018-01-30T05:58:53.440Z,3.55
2018-01-30T05:59:55.925Z,3.53
2018-01-30T06:00:58.413Z,3.44
2018-01-30T06:02:00.901Z,3.28
2018-01-30T06:03:03.367Z,3.23
2018-01-30T06:04:05.840Z,3.31
2018-01-30T06:05:08.364Z,3.44
2018-01-30T06:06:10.882Z,3.63
2018-01-30T06:07:13.326Z,3.44
2018-01-30T06:08:15.937Z,3.24
2018-01-30T06:09:18.396Z,3.24
2018-01-30T06:10:20.864Z,3.18
2018-01-30T06:11:23.340Z,3.07
2018-01-30T06:12:25.820Z,2.95
2018-01-30T06:13:28.297Z,2.83
2018-01-30T06:14:30.776Z,2.72
2018-01-30T06:15:33.243Z,2.96
2018-01-30T06:16:35.719Z,3.07
2018-01-30T06:17:38.186Z,3.26
2018-01-30T06:18:40.772Z,3.60
2018-01-30T06:19:43.388Z,3.49
2018-01-30T06:20:45.913Z,3.50
2018-01-30T06:21:48.349Z,3.54
2018-01-30T06:22:50.898Z,3.51
2018-01-30T06:23:53.866Z,3.35
2018-01-30T06:24:56.338Z,3.34
2018-01-30T06:25:58.829Z,3.18
2018-01-30T06:27:01.317Z,3.11
2018-01-30T06:28:03.800Z,3.05
2018-01-30T06:29:06.282Z,2.90
2018-01-30T06:30:08.762Z,2.74
2018-01-30T06:31:11.230Z,2.84
2018-01-30T06:32:13.754Z,2.79
2018-01-30T06:33:16.245Z,2.69
2018-01-30T06:34:18.724Z,2.80
2018-01-30T06:35:21.204Z,2.82
2018-01-30T06:36:23.686Z,2.82
2018-01-30T06:37:26.150Z,2.96
2018-01-30T06:38:28.643Z,2.88
2018-01-30T06:39:31.120Z,2.81
2018-01-30T06:40:33.618Z,2.65
2018-01-30T06:41:36.110Z,2.56
2018-01-30T06:42:38.640Z,2.50
2018-01-30T06:43:41.145Z,2.61
2018-01-30T06:44:43.625Z,2.63
2018-01-30T06:45:46.107Z,2.60
2018-01-30T06:46:48.594Z,2.72
2018-01-30T06:47:51.083Z,2.99
2018-01-30T06:48:53.576Z,3.20
2018-01-30T06:49:56.066Z,3.22
2018-01-30T06:50:58.546Z,3.22
2018-01-30T06:52:01.108Z,3.26
2018-01-30T06:53:03.589Z,3.42
2018-01-30T06:54:06.054Z,3.48
2018-01-30T06:55:08.532Z,3.49
2018-01-30T06:56:11.001Z,3.46
2018-01-30T06:57:13.466Z,3.55
2018-01-30T06:58:15.941Z,3.62
2018-01-30T06:59:18.428Z,3.47
2018-01-30T07:00:20.997Z,3.44
2018-01-30T07:01:23.473Z,3.47
2018-01-30T07:02:25.946Z,3.45
2018-01-30T07:03:28.424Z,3.33
2018-01-30T07:04:30.890Z,3.42
2018-01-30T07:05:33.373Z,3.49
2018-01-30T07:06:35.853Z,3.50
2018-01-30T07:07:38.329Z,3.48
2018-01-30T07:08:40.795Z,3.67
2018-01-30T07:09:43.276Z,3.59
2018-01-30T07:10:45.746Z,3.68
2018-01-30T07:11:48.315Z,3.80
2018-01-30T07:12:50.793Z,3.70
2018-01-30T07:13:53.258Z,3.63
2018-01-30T07:14:55.736Z,3.78
2018-01-30T07:15:58.214Z,3.68
2018-01-30T07:17:00.674Z,3.85
2018-01-30T07:18:03.142Z,3.99
2018-01-30T07:19:05.610Z,3.86
2018-01-30T07:20:08.100Z,3.99
2018-01-30T07:21:10.576Z,3.94
2018-01-30T07:22:13.115Z,4.00
2018-01-30T07:23:15.553Z,3.88
2018-01-30T07:24:18.036Z,3.89
2018-01-30T07:25:20.499Z,4.08
2018-01-30T07:26:22.976Z,4.13
2018-01-30T07:27:25.439Z,4.06
2018-01-30T07:28:27.929Z,4.00
2018-01-30T07:29:30.390Z,3.91
2018-01-30T07:30:32.854Z,4.05
2018-01-30T07:31:35.324Z,4.07
2018-01-30T07:32:37.805Z,4.00
2018-01-30T07:33:40.306Z,3.89
2018-01-30T07:34:42.780Z,4.05
2018-01-30T07:35:45.257Z,4.01
2018-01-30T07:36:47.741Z,4.09
2018-01-30T07:37:50.236Z,4.18
2018-01-30T07:38:52.704Z,4.15
2018-01-30T07:39:55.186Z,4.15
2018-01-30T07:40:57.697Z,4.10
2018-01-30T07:42:00.155Z,3.91
2018-01-30T07:43:02.657Z,3.89
2018-01-30T07:44:05.225Z,4.01
2018-01-30T07:45:07.711Z,4.02
2018-01-30T07:46:10.193Z,3.97
2018-01-30T07:47:12.659Z,3.97
2018-01-30T07:48:15.143Z,4.07
2018-01-30T07:49:17.607Z,4.17
2018-01-30T07:50:20.084Z,4.26
2018-01-30T07:51:22.561Z,4.28
2018-01-30T07:52:25.037Z,4.26
2018-01-30T07:53:27.520Z,4.28
2018-01-30T07:54:29.996Z,4.18
2018-01-30T07:55:32.462Z,4.05
2018-01-30T07:56:34.945Z,3.97
2018-01-30T07:57:37.426Z,4.12
2018-01-30T07:58:39.896Z,4.23
2018-01-30T07:59:42.367Z,4.16
2018-01-30T08:00:44.853Z,4.16
2018-01-30T08:01:47.340Z,4.02
2018-01-30T08:02:49.807Z,3.99
2018-01-30T08:03:52.326Z,4.09
2018-01-30T08:04:54.810Z,4.03
2018-01-30T08:05:57.291Z,4.09
2018-01-30T08:06:59.809Z,4.06
2018-01-30T08:08:02.297Z,3.97
2018-01-30T08:09:04.766Z,4.12
2018-01-30T08:10:07.263Z,4.12
2018-01-30T08:11:10.018Z,4.03
2018-01-30T08:12:12.510Z,4.18
2018-01-30T08:13:14.992Z,4.26
2018-01-30T08:14:17.469Z,4.30
2018-01-30T08:15:19.930Z,4.50
2018-01-30T08:16:22.407Z,4.67
2018-01-30T08:17:24.870Z,4.78
2018-01-30T08:18:27.335Z,4.97
2018-01-30T08:19:29.795Z,5.17
2018-01-30T08:20:32.304Z,5.28
2018-01-30T08:21:35.329Z,5.45
2018-01-30T08:22:38.049Z,5.47
2018-01-30T08:23:40.533Z,5.43
2018-01-30T08:24:43.011Z,5.51
2018-01-30T08:25:45.490Z,5.49
2018-01-30T08:26:47.973Z,5.61
2018-01-30T08:27:50.448Z,5.63
2018-01-30T08:28:52.918Z,5.52
2018-01-30T08:29:55.387Z,5.58
2018-01-30T08:30:57.867Z,5.66
2018-01-30T08:32:00.330Z,5.57
2018-01-30T08:33:02.795Z,5.51
2018-01-30T08:34:05.263Z,5.49
2018-01-30T08:35:07.735Z,5.43
2018-01-30T08:36:10.919Z,5.65
2018-01-30T08:37:13.401Z,5.89
2018-01-30T08:38:15.871Z,6.19
2018-01-30T08:39:18.352Z,6.69
2018-01-30T08:40:21.688Z,6.89
2018-01-30T08:41:24.155Z,6.89
2018-01-30T08:42:26.638Z,7.30
2018-01-30T08:43:29.115Z,7.76
2018-01-30T08:44:31.588Z,7.68
2018-01-30T08:45:34.056Z,7.22
2018-01-30T08:46:36.519Z,7.15
2018-01-30T08:47:39.001Z,7.69
2018-01-30T08:48:41.488Z,7.88
2018-01-30T08:49:43.963Z,8.61
2018-01-30T08:50:46.449Z,9.38
2018-01-30T08:51:48.919Z,10.04
2018-01-30T08:52:51.396Z,9.81
2018-01-30T08:53:53.870Z,10.14
2018-01-30T08:54:56.347Z,10.10
2018-01-30T08:55:59.145Z,9.85
2018-01-30T08:57:01.637Z,10.04
2018-01-30T08:58:04.108Z,9.58
2018-01-30T08:59:06.582Z,10.11
2018-01-30T09:00:09.047Z,9.78
2018-01-30T09:01:11.515Z,9.47
2018-01-30T09:02:13.997Z,10.13
2018-01-30T09:03:16.470Z,10.31
2018-01-30T09:04:18.939Z,10.64
2018-01-30T09:05:21.429Z,10.36
2018-01-30T09:06:23.913Z,10.48
2018-01-30T09:07:26.382Z,10.32
2018-01-30T09:08:28.850Z,10.41
2018-01-30T09:09:31.322Z,11.11
2018-01-30T09:10:33.803Z,11.29
2018-01-30T09:11:36.289Z,11.37
2018-01-30T09:12:38.764Z,11.27
2018-01-30T09:13:41.254Z,11.65
2018-01-30T09:14:44.161Z,11.13
2018-01-30T09:15:46.630Z,10.58
2018-01-30T09:16:49.195Z,9.83
2018-01-30T09:17:51.673Z,8.59
2018-01-30T09:18:54.299Z,7.82
2018-01-30T09:19:56.780Z,7.78
2018-01-30T09:20:59.242Z,7.88
2018-01-30T09:22:01.725Z,7.75
2018-01-30T09:23:04.186Z,7.48
2018-01-30T09:24:06.658Z,7.61
2018-01-30T09:25:09.133Z,7.53
2018-01-30T09:26:11.599Z,6.94
2018-01-30T09:27:14.081Z,6.97
2018-01-30T09:28:16.550Z,6.67
2018-01-30T09:29:19.025Z,6.81
2018-01-30T09:30:21.517Z,6.61
2018-01-30T09:31:24.002Z,6.65
2018-01-30T09:32:26.466Z,6.60
2018-01-30T09:33:28.969Z,6.67
2018-01-30T09:34:31.438Z,6.50
2018-01-30T09:35:33.921Z,6.41
2018-01-30T09:36:36.387Z,6.57
2018-01-30T09:37:38.867Z,6.69
2018-01-30T09:38:41.353Z,6.63
2018-01-30T09:39:43.818Z,6.69
2018-01-30T09:40:46.298Z,6.65
2018-01-30T09:41:48.764Z,6.81
2018-01-30T09:42:51.244Z,6.88
2018-01-30T09:43:53.725Z,6.91
2018-01-30T09:44:56.208Z,6.99
2018-01-30T09:45:58.675Z,7.10
2018-01-30T09:47:01.158Z,6.93
2018-01-30T09:48:03.634Z,7.05
2018-01-30T09:49:06.103Z,7.04
2018-01-30T09:50:08.589Z,7.00
2018-01-30T09:51:11.056Z,6.87
2018-01-30T09:52:13.545Z,6.79
2018-01-30T09:53:16.015Z,6.84
2018-01-30T09:54:18.507Z,6.80
2018-01-30T09:55:20.997Z,6.62
2018-01-30T09:56:23.485Z,6.76
2018-01-30T09:57:25.968Z,6.79
2018-01-30T09:58:28.439Z,6.80
2018-01-30T09:59:30.972Z,6.91
2018-01-30T10:00:33.512Z,6.77
2018-01-30T10:01:35.980Z,6.89
2018-01-30T10:02:38.548Z,6.89
2018-01-30T10:03:41.032Z,6.97
2018-01-30T10:04:43.518Z,6.86
2018-01-30T10:05:45.982Z,6.79
2018-01-30T10:06:48.470Z,6.76
2018-01-30T10:07:50.938Z,6.89
2018-01-30T10:08:53.424Z,6.85
2018-01-30T10:09:55.891Z,6.77
2018-01-30T10:10:58.409Z,6.80
2018-01-30T10:12:00.882Z,6.88
2018-01-30T10:13:03.368Z,7.02
2018-01-30T10:14:05.830Z,7.11
2018-01-30T10:15:08.345Z,7.16
2018-01-30T10:16:10.815Z,7.05
2018-01-30T10:17:13.279Z,7.25
2018-01-30T10:18:15.759Z,7.44
2018-01-30T10:19:18.236Z,7.54
2018-01-30T10:20:20.703Z,7.54
2018-01-30T10:21:23.166Z,7.53
2018-01-30T10:22:25.635Z,7.66
2018-01-30T10:23:28.094Z,7.70
2018-01-30T10:24:30.563Z,7.93
2018-01-30T10:25:33.049Z,7.95
2018-01-30T10:26:35.524Z,8.14
2018-01-30T10:27:37.990Z,8.20
2018-01-30T10:28:40.455Z,8.41
2018-01-30T10:29:42.938Z,8.37
2018-01-30T10:30:45.432Z,8.16
2018-01-30T10:31:47.896Z,8.05
2018-01-30T10:32:50.377Z,8.32
2018-01-30T10:33:52.852Z,9.08
2018-01-30T10:34:55.332Z,9.71
2018-01-30T10:35:57.795Z,9.59
2018-01-30T10:37:00.267Z,10.09
2018-01-30T10:38:02.752Z,10.16
2018-01-30T10:39:05.225Z,10.34
2018-01-30T10:40:07.699Z,10.25
2018-01-30T10:41:10.218Z,11.67
2018-01-30T10:42:12.715Z,12.93
2018-01-30T10:43:15.201Z,13.13
2018-01-30T10:44:17.688Z,13.09
2018-01-30T10:45:20.230Z,14.06
2018-01-30T10:46:22.710Z,15.47
2018-01-30T10:47:25.182Z,16.03
2018-01-30T10:48:27.709Z,15.08
2018-01-30T10:49:30.221Z,16.43
2018-01-30T10:50:32.696Z,17.14
2018-01-30T10:51:35.184Z,16.95
2018-01-30T10:52:37.697Z,16.45
2018-01-30T10:53:40.171Z,15.90
2018-01-30T10:54:42.643Z,15.39
2018-01-30T10:55:45.208Z,14.93
2018-01-30T10:56:47.687Z,16.03
2018-01-30T10:57:50.235Z,15.39
2018-01-30T10:58:52.702Z,13.75
2018-01-30T10:59:55.195Z,13.25
2018-01-30T11:00:57.687Z,13.26
2018-01-30T11:02:00.221Z,13.68
2018-01-30T11:03:02.708Z,13.00
2018-01-30T11:04:05.174Z,12.82
2018-01-30T11:05:07.713Z,12.07
2018-01-30T11:06:10.191Z,11.41
2018-01-30T11:07:12.680Z,10.71
2018-01-30T11:08:15.147Z,10.51
2018-01-30T11:09:17.623Z,10.44
2018-01-30T11:10:20.097Z,9.99
2018-01-30T11:11:22.564Z,10.03
2018-01-30T11:12:25.044Z,10.01
2018-01-30T11:13:27.536Z,10.01
2018-01-30T11:14:30.019Z,9.96
2018-01-30T11:15:32.501Z,9.74
2018-01-30T11:16:34.981Z,9.59
2018-01-30T11:17:37.446Z,9.61
2018-01-30T11:18:39.933Z,9.48
2018-01-30T11:19:42.404Z,8.84
2018-01-30T11:20:44.884Z,8.99
2018-01-30T11:21:47.354Z,9.33
2018-01-30T11:22:49.841Z,9.17
2018-01-30T11:23:52.364Z,9.31
2018-01-30T11:24:54.850Z,9.48
2018-01-30T11:25:57.330Z,9.59
2018-01-30T11:26:59.860Z,9.65
2018-01-30T11:28:02.341Z,9.49
2018-01-30T11:29:04.830Z,9.34
2018-01-30T11:30:07.320Z,9.33
2018-01-30T11:31:09.800Z,9.37
2018-01-30T11:32:12.308Z,9.12
2018-01-30T11:33:14.788Z,9.06
2018-01-30T11:34:17.296Z,9.16
2018-01-30T11:35:19.775Z,8.87
2018-01-30T11:36:22.248Z,8.78
2018-01-30T11:37:24.721Z,9.00
2018-01-30T11:38:27.200Z,9.00
2018-01-30T11:39:29.688Z,8.81
2018-01-30T11:40:32.177Z,8.89
2018-01-30T11:41:34.652Z,9.04
2018-01-30T11:42:37.132Z,9.18
2018-01-30T11:43:39.598Z,8.87
2018-01-30T11:44:42.066Z,8.86
2018-01-30T11:45:44.553Z,9.11
2018-01-30T11:46:47.022Z,9.71
2018-01-30T11:47:49.506Z,10.06
2018-01-30T11:48:51.975Z,9.68
2018-01-30T11:49:54.456Z,9.54
2018-01-30T11:50:57.279Z,9.93
2018-01-30T11:51:59.805Z,9.54
2018-01-30T11:53:02.301Z,9.61
2018-01-30T11:54:04.766Z,10.13
2018-01-30T11:55:07.249Z,9.94
2018-01-30T11:56:09.732Z,10.40
2018-01-30T11:57:12.218Z,10.99
2018-01-30T11:58:14.708Z,11.56
2018-01-30T11:59:17.180Z,11.23
2018-01-30T12:00:19.672Z,11.41
2018-01-30T12:01:22.153Z,11.11
2018-01-30T12:02:24.618Z,10.68
2018-01-30T12:03:27.098Z,10.81
2018-01-30T12:04:29.582Z,10.22
2018-01-30T12:05:32.059Z,9.90
2018-01-30T12:06:34.542Z,10.09
2018-01-30T12:07:37.285Z,9.74
2018-01-30T12:08:39.777Z,9.71
2018-01-30T12:09:42.268Z,9.86
2018-01-30T12:10:44.753Z,9.67
2018-01-30T12:11:47.219Z,9.43
2018-01-30T12:12:49.682Z,9.15
2018-01-30T12:13:52.160Z,9.13
2018-01-30T12:14:54.657Z,9.00
2018-01-30T12:15:57.125Z,9.19
2018-01-30T12:16:59.683Z,9.21
2018-01-30T12:18:02.181Z,9.32
2018-01-30T12:19:04.655Z,9.46
2018-01-30T12:20:07.169Z,9.37
2018-01-30T12:21:09.642Z,9.41
2018-01-30T12:22:12.117Z,9.46
2018-01-30T12:23:14.594Z,9.42
2018-01-30T12:24:17.058Z,9.93
2018-01-30T12:25:19.541Z,10.68
2018-01-30T12:26:22.009Z,10.94
2018-01-30T12:27:24.487Z,11.26
2018-01-30T12:28:26.994Z,11.37
2018-01-30T12:29:29.483Z,12.72
2018-01-30T12:30:31.950Z,13.31
2018-01-30T12:31:34.423Z,13.19
2018-01-30T12:32:36.909Z,13.31
2018-01-30T12:33:39.405Z,13.77
2018-01-30T12:34:41.894Z,14.66
2018-01-30T12:35:44.372Z,15.50
2018-01-30T12:36:46.842Z,15.22
2018-01-30T12:37:49.322Z,14.32
2018-01-30T12:38:51.791Z,13.33
2018-01-30T12:39:54.265Z,11.99
2018-01-30T12:40:56.748Z,11.40
2018-01-30T12:41:59.233Z,10.91
2018-01-30T12:43:01.712Z,11.13
2018-01-30T12:44:04.192Z,11.88
2018-01-30T12:45:06.685Z,12.46
2018-01-30T12:46:09.179Z,13.06
2018-01-30T12:47:11.688Z,13.57
2018-01-30T12:48:14.170Z,13.58
2018-01-30T12:49:16.642Z,13.05
2018-01-30T12:50:19.125Z,13.13
2018-01-30T12:51:21.614Z,14.15
2018-01-30T12:52:24.087Z,13.14
2018-01-30T12:53:26.575Z,12.80
2018-01-30T12:54:29.043Z,12.82
2018-01-30T12:55:31.791Z,12.80
2018-01-30T12:56:34.274Z,13.58
2018-01-30T12:57:36.739Z,13.79
2018-01-30T12:58:39.211Z,13.36
2018-01-30T12:59:41.748Z,12.76
2018-01-30T13:00:44.239Z,12.44
2018-01-30T13:01:46.715Z,11.82
2018-01-30T13:02:49.196Z,11.59
2018-01-30T13:03:51.673Z,10.86
2018-01-30T13:04:54.138Z,11.10
2018-01-30T13:05:56.617Z,11.50
2018-01-30T13:06:59.104Z,12.96
2018-01-30T13:08:01.596Z,13.78
2018-01-30T13:09:04.086Z,14.42
2018-01-30T13:10:06.563Z,15.43
2018-01-30T13:11:09.053Z,15.74
2018-01-30T13:12:11.547Z,15.95
2018-01-30T13:13:14.115Z,16.44
2018-01-30T13:14:16.594Z,16.04
2018-01-30T13:15:19.062Z,15.70
2018-01-30T13:16:21.556Z,16.00
2018-01-30T13:17:24.049Z,15.16
2018-01-30T13:18:26.521Z,15.12
2018-01-30T13:19:29.116Z,14.73
2018-01-30T13:20:31.597Z,14.98
2018-01-30T13:21:34.481Z,14.68
2018-01-30T13:22:36.947Z,14.27
2018-01-30T13:23:39.416Z,13.22
2018-01-30T13:24:41.886Z,12.62
2018-01-30T13:25:44.351Z,11.96
2018-01-30T13:26:46.837Z,12.07
2018-01-30T13:27:49.316Z,12.93
2018-01-30T13:28:51.794Z,13.06
2018-01-30T13:29:54.263Z,12.49
2018-01-30T13:30:56.765Z,12.21
2018-01-30T13:31:59.241Z,12.79
2018-01-30T13:33:01.714Z,12.55
2018-01-30T13:34:04.187Z,13.19
2018-01-30T13:35:06.670Z,12.66
2018-01-30T13:36:09.232Z,11.34
2018-01-30T13:37:11.714Z,11.84
2018-01-30T13:38:14.205Z,12.84
2018-01-30T13:39:16.702Z,13.31
2018-01-30T13:40:19.172Z,13.18
2018-01-30T13:41:21.653Z,12.72
2018-01-30T13:42:24.122Z,12.38
2018-01-30T13:43:26.596Z,13.55
2018-01-30T13:44:29.075Z,14.55
2018-01-30T13:45:31.547Z,15.07
2018-01-30T13:46:34.011Z,15.33